Time;durP1;ratioP1;P1;durP2;ratioP2;P2;SDS_P1;SDS_P2;PMS_P1;PMS_P2;Temp;Humidity;BMP_temperature;BMP_pressure;BME280_temperature;BME280_humidity;BME280_pressure;Samples;Min_cycle;Max_cycle;Signal;HPM_P1;HPM_P2
2023/08/02 00:00:35;;;;;;;3.85;2.80;;;;;;;;;;4954402;29;20023;-71
2023/08/02 00:03:01;;;;;;;3.60;2.83;;;;;;;;;;4954191;29;20039;-71
2023/08/02 00:05:28;;;;;;;2.80;2.55;;;;;;;;;;4954143;28;20403;-71
2023/08/02 00:07:54;;;;;;;2.72;2.30;;;;;;;;;;4954199;29;20037;-71
2023/08/02 00:10:21;;;;;;;4.05;2.55;;;;;;;;;;4954219;29;20042;-70
2023/08/02 00:12:50;;;;;;;3.25;2.65;;;;;;;;;;4954346;29;20054;-71
2023/08/02 00:15:16;;;;;;;3.15;2.70;;;;;;;;;;4954285;28;20041;-71
2023/08/02 00:17:42;;;;;;;3.63;2.50;;;;;;;;;;4955765;28;20023;-71
2023/08/02 00:20:09;;;;;;;4.13;3.03;;;;;;;;;;4958310;29;20031;-71
2023/08/02 00:22:35;;;;;;;3.28;2.50;;;;;;;;;;4958047;28;20050;-71
2023/08/02 00:25:02;;;;;;;3.67;2.50;;;;;;;;;;4957467;29;20502;-71
2023/08/02 00:27:28;;;;;;;3.50;2.50;;;;;;;;;;4957936;29;20031;-71
2023/08/02 00:29:54;;;;;;;3.55;2.63;;;;;;;;;;4958003;29;20034;-71
2023/08/02 00:32:20;;;;;;;3.95;2.75;;;;;;;;;;4957814;29;20031;-71
2023/08/02 00:34:54;;;;;;;4.07;2.75;;;;;;;;;;4957696;29;20415;-71
2023/08/02 00:37:21;;;;;;;2.63;2.40;;;;;;;;;;4957563;29;20038;-71
2023/08/02 00:39:50;;;;;;;3.10;2.80;;;;;;;;;;4957388;28;20019;-71
2023/08/02 00:42:16;;;;;;;4.55;3.15;;;;;;;;;;4956141;29;20530;-71
2023/08/02 00:44:42;;;;;;;3.50;2.90;;;;;;;;;;4957718;29;20019;-71
2023/08/02 00:47:09;;;;;;;3.15;2.20;;;;;;;;;;4957535;29;20120;-71
2023/08/02 00:49:35;;;;;;;3.92;2.90;;;;;;;;;;4957543;29;20026;-71
2023/08/02 00:52:01;;;;;;;3.15;2.60;;;;;;;;;;4957276;29;20121;-71
2023/08/02 00:54:28;;;;;;;4.97;2.92;;;;;;;;;;4956787;29;20431;-72
2023/08/02 00:56:54;;;;;;;3.47;2.90;;;;;;;;;;4957554;28;20027;-71
2023/08/02 00:59:21;;;;;;;4.85;3.25;;;;;;;;;;4957221;28;20034;-71
2023/08/02 01:01:47;;;;;;;3.38;2.60;;;;;;;;;;4957286;29;20480;-71
2023/08/02 01:04:15;;;;;;;4.95;3.20;;;;;;;;;;4956067;29;20090;-71
2023/08/02 01:07:07;;;;;;;4.18;3.10;;;;;;;;;;4957235;29;20016;-71
2023/08/02 01:09:54;;;;;;;3.78;3.08;;;;;;;;;;4956787;29;20039;-71
2023/08/02 01:12:22;;;;;;;3.40;2.75;;;;;;;;;;4957060;28;20023;-71
2023/08/02 01:14:51;;;;;;;3.72;2.58;;;;;;;;;;4957040;29;20027;-71
2023/08/02 01:17:18;;;;;;;4.45;2.60;;;;;;;;;;4956954;28;20023;-71
2023/08/02 01:19:44;;;;;;;3.30;2.65;;;;;;;;;;4956991;29;20029;-71
2023/08/02 01:22:10;;;;;;;4.07;2.63;;;;;;;;;;4956498;29;20035;-71
2023/08/02 01:24:37;;;;;;;3.00;2.67;;;;;;;;;;4956860;29;20033;-71
2023/08/02 01:27:06;;;;;;;3.97;2.63;;;;;;;;;;4956836;29;20038;-71
2023/08/02 01:29:33;;;;;;;3.58;2.92;;;;;;;;;;4956071;28;20514;-71
2023/08/02 01:31:59;;;;;;;3.17;2.45;;;;;;;;;;4956800;29;20023;-71
2023/08/02 01:34:26;;;;;;;3.60;2.53;;;;;;;;;;4956503;29;20376;-71
2023/08/02 01:36:53;;;;;;;3.53;2.42;;;;;;;;;;4955961;29;20455;-71
2023/08/02 01:39:19;;;;;;;3.58;2.95;;;;;;;;;;4956565;29;20019;-71
2023/08/02 01:41:45;;;;;;;4.90;2.90;;;;;;;;;;4956285;28;20035;-71
2023/08/02 01:44:11;;;;;;;3.15;2.67;;;;;;;;;;4956811;29;20042;-71
2023/08/02 01:46:38;;;;;;;2.70;2.50;;;;;;;;;;4956511;28;20033;-71
2023/08/02 01:49:04;;;;;;;3.85;2.78;;;;;;;;;;4956370;28;20029;-71
2023/08/02 01:51:30;;;;;;;3.25;2.83;;;;;;;;;;4956370;29;20085;-71
2023/08/02 01:53:57;;;;;;;3.97;2.78;;;;;;;;;;4956305;29;20020;-71
2023/08/02 01:56:23;;;;;;;4.25;2.85;;;;;;;;;;4956474;29;20027;-71
2023/08/02 01:58:49;;;;;;;4.05;2.67;;;;;;;;;;4956153;29;20029;-71
2023/08/02 02:01:16;;;;;;;3.78;2.67;;;;;;;;;;4956427;29;20046;-71
2023/08/02 02:03:42;;;;;;;3.63;2.70;;;;;;;;;;4956374;28;20042;-71
2023/08/02 02:06:08;;;;;;;3.90;2.70;;;;;;;;;;4955602;29;20391;-71
2023/08/02 02:08:34;;;;;;;3.53;2.67;;;;;;;;;;4956027;29;20031;-71
2023/08/02 02:11:01;;;;;;;4.65;3.03;;;;;;;;;;4955850;29;20484;-71
2023/08/02 02:13:27;;;;;;;3.03;2.58;;;;;;;;;;4956141;28;20033;-70
2023/08/02 02:15:53;;;;;;;2.80;2.53;;;;;;;;;;4956011;29;20015;-71
2023/08/02 02:18:20;;;;;;;2.80;2.50;;;;;;;;;;4955828;29;20038;-71
2023/08/02 02:20:46;;;;;;;3.88;2.90;;;;;;;;;;4955668;28;20023;-71
2023/08/02 02:23:12;;;;;;;3.25;2.90;;;;;;;;;;4954572;29;20031;-71
2023/08/02 02:25:39;;;;;;;3.75;2.72;;;;;;;;;;4955935;29;20031;-71
2023/08/02 02:28:05;;;;;;;3.03;2.72;;;;;;;;;;4954577;29;20027;-71
2023/08/02 02:30:31;;;;;;;4.20;3.05;;;;;;;;;;4955327;28;20019;-71
2023/08/02 02:32:58;;;;;;;3.38;2.72;;;;;;;;;;4955575;29;20093;-71
2023/08/02 02:35:24;;;;;;;2.70;2.38;;;;;;;;;;4955319;29;20035;-71
2023/08/02 02:37:51;;;;;;;2.90;2.60;;;;;;;;;;4953975;29;20041;-71
2023/08/02 02:40:17;;;;;;;3.33;2.70;;;;;;;;;;4954834;28;20041;-71
2023/08/02 02:42:44;;;;;;;3.38;2.47;;;;;;;;;;4954953;29;20381;-71
2023/08/02 02:45:10;;;;;;;3.60;2.70;;;;;;;;;;4955468;29;20028;-71
2023/08/02 02:47:37;;;;;;;3.50;2.65;;;;;;;;;;4955345;29;20029;-71
2023/08/02 02:50:03;;;;;;;6.32;2.72;;;;;;;;;;4954849;29;20395;-71
2023/08/02 02:52:30;;;;;;;4.13;2.72;;;;;;;;;;4955437;29;20028;-71
2023/08/02 02:54:56;;;;;;;3.97;2.78;;;;;;;;;;4955231;28;20543;-71
2023/08/02 02:57:22;;;;;;;4.28;2.80;;;;;;;;;;4955301;29;20031;-71
2023/08/02 02:59:49;;;;;;;3.03;2.50;;;;;;;;;;4955114;29;20366;-71
2023/08/02 03:02:15;;;;;;;3.72;2.58;;;;;;;;;;4954833;28;20047;-71
2023/08/02 03:04:41;;;;;;;3.25;2.47;;;;;;;;;;4954922;29;20366;-71
2023/08/02 03:07:08;;;;;;;2.92;2.53;;;;;;;;;;4955148;29;20027;-71
2023/08/02 03:09:34;;;;;;;3.20;2.50;;;;;;;;;;4955076;29;20086;-71
2023/08/02 03:12:00;;;;;;;2.47;2.28;;;;;;;;;;4954020;29;20031;-71
2023/08/02 03:14:27;;;;;;;4.47;3.00;;;;;;;;;;4954850;29;20031;-70
2023/08/02 03:16:54;;;;;;;3.10;2.80;;;;;;;;;;4955195;29;20038;-71
2023/08/02 03:19:20;;;;;;;4.20;2.95;;;;;;;;;;4954662;29;20031;-71
2023/08/02 03:21:46;;;;;;;3.88;2.80;;;;;;;;;;4954758;29;20061;-71
2023/08/02 03:24:12;;;;;;;3.70;2.95;;;;;;;;;;4955248;29;20025;-71
2023/08/02 03:26:39;;;;;;;3.30;2.72;;;;;;;;;;4954877;29;20535;-71
2023/08/02 03:29:05;;;;;;;3.08;2.65;;;;;;;;;;4954744;28;20029;-71
2023/08/02 03:31:31;;;;;;;4.40;3.30;;;;;;;;;;4954775;28;20023;-71
2023/08/02 03:33:58;;;;;;;3.53;2.72;;;;;;;;;;4954680;29;20053;-71
2023/08/02 03:36:24;;;;;;;3.92;2.90;;;;;;;;;;4954663;29;20074;-71
2023/08/02 03:38:50;;;;;;;4.80;2.50;;;;;;;;;;4954619;29;20027;-71
2023/08/02 03:41:17;;;;;;;2.72;2.42;;;;;;;;;;4954598;29;20027;-71
2023/08/02 03:43:43;;;;;;;3.53;2.70;;;;;;;;;;4954702;29;20035;-71
2023/08/02 03:46:09;;;;;;;3.85;2.70;;;;;;;;;;4954614;28;20451;-71
2023/08/02 03:48:36;;;;;;;3.40;2.60;;;;;;;;;;4954177;29;20384;-71
2023/08/02 03:51:02;;;;;;;3.70;2.45;;;;;;;;;;4954392;29;20039;-70
2023/08/02 03:53:30;;;;;;;4.20;3.15;;;;;;;;;;4954478;29;20035;-71
2023/08/02 03:55:56;;;;;;;3.03;2.72;;;;;;;;;;4954356;28;20388;-71
2023/08/02 03:58:22;;;;;;;5.28;2.60;;;;;;;;;;4953193;29;20029;-71
2023/08/02 04:00:49;;;;;;;3.08;2.78;;;;;;;;;;4954433;29;20035;-71
2023/08/02 04:03:15;;;;;;;4.07;2.80;;;;;;;;;;4953980;29;20050;-71
2023/08/02 04:05:41;;;;;;;3.13;2.78;;;;;;;;;;4954616;29;20031;-71
2023/08/02 04:08:08;;;;;;;3.10;2.80;;;;;;;;;;4954636;29;20031;-71
2023/08/02 04:10:37;;;;;;;3.55;2.55;;;;;;;;;;4954235;29;20027;-71
2023/08/02 04:13:04;;;;;;;4.00;2.97;;;;;;;;;;4954159;29;20019;-70
2023/08/02 04:15:31;;;;;;;2.88;2.55;;;;;;;;;;4954395;28;20030;-71
2023/08/02 04:17:57;;;;;;;4.45;2.88;;;;;;;;;;4953887;28;20054;-71
2023/08/02 04:20:24;;;;;;;6.05;3.22;;;;;;;;;;4954485;28;20031;-71
2023/08/02 04:22:50;;;;;;;3.92;3.13;;;;;;;;;;4954030;29;20046;-71
2023/08/02 04:25:17;;;;;;;4.63;2.95;;;;;;;;;;4953989;28;20020;-68
2023/08/02 04:27:43;;;;;;;4.15;2.70;;;;;;;;;;4954188;29;20034;-69
2023/08/02 04:30:10;;;;;;;2.90;2.58;;;;;;;;;;4953986;29;20024;-70
2023/08/02 04:32:36;;;;;;;3.42;2.78;;;;;;;;;;4953586;29;20034;-70
2023/08/02 04:35:02;;;;;;;3.05;2.75;;;;;;;;;;4954111;29;20032;-70
2023/08/02 04:37:29;;;;;;;4.00;2.95;;;;;;;;;;4953895;28;20033;-71
2023/08/02 04:39:55;;;;;;;3.88;2.92;;;;;;;;;;4954321;29;20042;-70
2023/08/02 04:42:21;;;;;;;5.70;3.15;;;;;;;;;;4953933;29;20027;-70
2023/08/02 04:44:48;;;;;;;3.38;2.70;;;;;;;;;;4952497;29;20101;-71
2023/08/02 04:47:14;;;;;;;3.55;2.65;;;;;;;;;;4953958;29;20031;-70
2023/08/02 04:49:40;;;;;;;3.80;2.97;;;;;;;;;;4953955;28;20027;-71
2023/08/02 04:52:07;;;;;;;3.53;2.60;;;;;;;;;;4954169;29;20035;-71
2023/08/02 04:54:33;;;;;;;3.90;2.70;;;;;;;;;;4953588;29;20033;-71
2023/08/02 04:56:59;;;;;;;3.33;2.80;;;;;;;;;;4953928;29;20019;-70
2023/08/02 04:59:25;;;;;;;3.45;2.80;;;;;;;;;;4953747;29;20023;-70
2023/08/02 05:01:52;;;;;;;3.33;2.92;;;;;;;;;;4953893;29;20043;-71
2023/08/02 05:04:18;;;;;;;3.63;2.78;;;;;;;;;;4954696;28;20027;-71
2023/08/02 05:06:44;;;;;;;3.20;2.72;;;;;;;;;;4957169;29;20481;-71
2023/08/02 05:09:11;;;;;;;3.55;2.92;;;;;;;;;;4956975;28;20027;-71
2023/08/02 05:11:40;;;;;;;4.32;2.90;;;;;;;;;;4957206;29;20016;-71
2023/08/02 05:14:06;;;;;;;3.00;2.70;;;;;;;;;;4956872;29;20488;-71
2023/08/02 05:16:32;;;;;;;3.55;2.60;;;;;;;;;;4955891;29;20039;-71
2023/08/02 05:18:59;;;;;;;3.33;2.60;;;;;;;;;;4956738;29;20037;-70
2023/08/02 05:21:25;;;;;;;3.38;2.78;;;;;;;;;;4957050;28;20031;-71
2023/08/02 05:23:51;;;;;;;4.93;2.90;;;;;;;;;;4956862;28;20036;-71
2023/08/02 05:26:18;;;;;;;2.88;2.58;;;;;;;;;;4956817;28;20518;-70
2023/08/02 05:28:44;;;;;;;3.58;2.60;;;;;;;;;;4956528;28;20031;-71
2023/08/02 05:31:11;;;;;;;3.50;2.83;;;;;;;;;;4956752;29;20019;-71
2023/08/02 05:33:37;;;;;;;4.10;2.58;;;;;;;;;;4956653;28;20579;-71
2023/08/02 05:36:04;;;;;;;4.10;2.67;;;;;;;;;;4956976;29;20035;-71
2023/08/02 05:38:33;;;;;;;3.00;2.70;;;;;;;;;;4956594;28;20480;-70
2023/08/02 05:41:03;;;;;;;3.85;2.92;;;;;;;;;;4956785;29;20041;-71
2023/08/02 05:43:29;;;;;;;4.20;2.97;;;;;;;;;;4956245;28;20039;-71
2023/08/02 05:45:56;;;;;;;3.90;2.80;;;;;;;;;;4956814;29;20030;-71
2023/08/02 05:48:23;;;;;;;3.58;2.75;;;;;;;;;;4956676;29;20031;-71
2023/08/02 05:50:49;;;;;;;3.97;2.75;;;;;;;;;;4956840;29;20027;-71
2023/08/02 05:53:15;;;;;;;4.60;3.00;;;;;;;;;;4956371;29;20501;-71
2023/08/02 05:55:42;;;;;;;4.15;2.80;;;;;;;;;;4955159;29;20019;-71
2023/08/02 05:58:08;;;;;;;5.03;3.00;;;;;;;;;;4956181;28;20027;-71
2023/08/02 06:00:34;;;;;;;3.90;3.17;;;;;;;;;;4956194;28;20046;-71
2023/08/02 06:03:01;;;;;;;4.10;2.85;;;;;;;;;;4956037;29;20035;-71
2023/08/02 06:05:27;;;;;;;4.32;2.67;;;;;;;;;;4956409;29;20023;-71
2023/08/02 06:07:54;;;;;;;4.32;2.83;;;;;;;;;;4956127;29;20027;-71
2023/08/02 06:10:20;;;;;;;4.55;3.05;;;;;;;;;;4956029;28;20167;-71
2023/08/02 06:12:47;;;;;;;3.97;3.00;;;;;;;;;;4955819;29;20019;-71
2023/08/02 06:15:13;;;;;;;5.00;3.08;;;;;;;;;;4955680;28;20027;-71
2023/08/02 06:17:39;;;;;;;4.32;2.75;;;;;;;;;;4955976;28;20031;-70
2023/08/02 06:20:07;;;;;;;3.65;2.70;;;;;;;;;;4955695;29;20024;-71
2023/08/02 06:22:33;;;;;;;3.70;2.72;;;;;;;;;;4955767;28;20381;-71
2023/08/02 06:24:59;;;;;;;4.47;2.85;;;;;;;;;;4955013;29;20034;-71
2023/08/02 06:27:25;;;;;;;3.92;2.97;;;;;;;;;;4955417;29;20027;-71
2023/08/02 06:29:52;;;;;;;3.80;2.88;;;;;;;;;;4951764;29;20011;-71
2023/08/02 06:32:18;;;;;;;3.33;2.80;;;;;;;;;;4953720;29;20428;-69
2023/08/02 06:34:44;;;;;;;4.78;3.08;;;;;;;;;;4954874;28;20061;-70
2023/08/02 06:37:11;;;;;;;3.58;2.70;;;;;;;;;;4954742;29;20534;-71
2023/08/02 06:39:37;;;;;;;4.65;2.90;;;;;;;;;;4954840;28;20384;-71
2023/08/02 06:42:03;;;;;;;3.15;2.60;;;;;;;;;;4953601;28;20039;-71
2023/08/02 06:44:30;;;;;;;3.13;2.40;;;;;;;;;;4952015;29;20028;-71
2023/08/02 06:46:56;;;;;;;3.25;2.60;;;;;;;;;;4953521;29;20413;-70
2023/08/02 06:49:22;;;;;;;3.63;2.80;;;;;;;;;;4954874;29;20020;-71
2023/08/02 06:51:49;;;;;;;3.85;2.70;;;;;;;;;;4944055;29;20031;-71
2023/08/02 06:54:15;;;;;;;4.15;2.92;;;;;;;;;;4935181;29;20040;-71
2023/08/02 06:56:42;;;;;;;3.88;2.95;;;;;;;;;;4935293;29;20035;-71
2023/08/02 06:59:08;;;;;;;3.88;3.03;;;;;;;;;;4935043;29;20027;-71
2023/08/02 07:01:34;;;;;;;5.53;2.80;;;;;;;;;;4939100;29;20034;-71
2023/08/02 07:04:01;;;;;;;4.63;3.08;;;;;;;;;;4954175;29;20049;-71
2023/08/02 07:06:27;;;;;;;3.45;2.97;;;;;;;;;;4948262;28;20477;-71
2023/08/02 07:08:53;;;;;;;6.32;2.90;;;;;;;;;;4933634;29;20099;-71
2023/08/02 07:11:20;;;;;;;3.45;2.80;;;;;;;;;;4934381;29;20020;-71
2023/08/02 07:13:46;;;;;;;3.30;2.65;;;;;;;;;;4935104;29;20054;-71
2023/08/02 07:16:12;;;;;;;4.40;2.97;;;;;;;;;;4934535;29;20022;-71
2023/08/02 07:18:39;;;;;;;5.00;2.97;;;;;;;;;;4934409;29;20034;-71
2023/08/02 07:21:05;;;;;;;3.60;2.55;;;;;;;;;;4935132;29;20038;-71
2023/08/02 07:23:31;;;;;;;4.78;3.05;;;;;;;;;;4934763;29;20043;-70
2023/08/02 07:25:58;;;;;;;6.15;2.83;;;;;;;;;;4933093;29;20054;-71
2023/08/02 07:28:24;;;;;;;3.45;2.92;;;;;;;;;;4934091;29;20040;-71
2023/08/02 07:30:50;;;;;;;4.57;3.20;;;;;;;;;;4935089;29;20039;-71
2023/08/02 07:33:17;;;;;;;4.60;2.80;;;;;;;;;;4934138;29;20520;-72
2023/08/02 07:35:46;;;;;;;5.53;2.80;;;;;;;;;;4953218;29;20027;-70
2023/08/02 07:38:14;;;;;;;5.90;2.92;;;;;;;;;;4953262;29;20027;-70
2023/08/02 07:40:43;;;;;;;4.18;2.78;;;;;;;;;;4953400;29;20450;-70
2023/08/02 07:43:10;;;;;;;3.72;2.95;;;;;;;;;;4953696;29;20435;-70
2023/08/02 07:45:36;;;;;;;5.18;3.03;;;;;;;;;;4953622;29;20050;-70
2023/08/02 07:48:02;;;;;;;4.18;2.80;;;;;;;;;;4953700;29;20498;-70
2023/08/02 07:50:29;;;;;;;4.93;2.95;;;;;;;;;;4953683;28;20488;-71
2023/08/02 07:52:55;;;;;;;5.55;2.80;;;;;;;;;;4953657;28;20039;-71
2023/08/02 07:55:21;;;;;;;5.95;3.00;;;;;;;;;;4953300;28;20035;-71
2023/08/02 07:57:48;;;;;;;8.18;3.00;;;;;;;;;;4953582;29;20031;-71
2023/08/02 08:00:14;;;;;;;4.55;2.95;;;;;;;;;;4953656;29;20031;-70
2023/08/02 08:02:40;;;;;;;5.97;3.72;;;;;;;;;;4953722;29;20038;-71
2023/08/02 08:05:07;;;;;;;6.60;2.85;;;;;;;;;;4953529;29;20503;-71
2023/08/02 08:07:33;;;;;;;8.27;3.20;;;;;;;;;;4953499;29;20498;-72
2023/08/02 08:10:00;;;;;;;4.68;3.08;;;;;;;;;;4953571;29;20477;-72
2023/08/02 08:12:26;;;;;;;6.32;3.50;;;;;;;;;;4953626;29;20502;-72
2023/08/02 08:14:52;;;;;;;6.28;3.45;;;;;;;;;;4953750;29;20038;-72
2023/08/02 08:17:19;;;;;;;6.40;3.50;;;;;;;;;;4953957;29;20038;-72
2023/08/02 08:19:45;;;;;;;6.35;3.08;;;;;;;;;;4953600;29;20019;-72
2023/08/02 08:22:12;;;;;;;4.55;3.00;;;;;;;;;;4953377;29;20403;-71
2023/08/02 08:24:38;;;;;;;5.03;3.15;;;;;;;;;;4953669;29;20023;-72
2023/08/02 08:27:04;;;;;;;6.18;3.15;;;;;;;;;;4953712;29;20033;-67
2023/08/02 08:29:31;;;;;;;5.60;2.85;;;;;;;;;;4953586;28;20404;-73
2023/08/02 08:31:57;;;;;;;7.47;2.40;;;;;;;;;;4953640;29;20027;-76
2023/08/02 08:34:23;;;;;;;8.07;2.70;;;;;;;;;;4953367;29;20035;-74
2023/08/02 08:36:50;;;;;;;5.47;2.60;;;;;;;;;;4953163;29;20025;-75
2023/08/02 08:39:18;;;;;;;5.63;2.80;;;;;;;;;;4955850;28;20075;-75
2023/08/02 08:41:44;;;;;;;9.00;2.75;;;;;;;;;;4957405;28;20027;-77
2023/08/02 08:44:11;;;;;;;5.22;2.63;;;;;;;;;;4957432;29;20040;-77
2023/08/02 08:46:37;;;;;;;3.85;2.33;;;;;;;;;;4957036;28;20027;-84
2023/08/02 08:49:04;;;;;;;5.13;2.60;;;;;;;;;;4956923;29;20395;-80
2023/08/02 08:51:33;;;;;;;2.78;2.45;;;;;;;;;;4956863;28;20028;-87
2023/08/02 08:54:03;;;;;;;4.63;2.72;;;;;;;;;;4957036;29;20430;-80
2023/08/02 08:56:30;;;;;;;9.07;2.83;;;;;;;;;;4957148;29;20027;-78
2023/08/02 08:58:59;;;;;;;5.78;2.85;;;;;;;;;;4956993;29;20613;-78
2023/08/02 09:01:26;;;;;;;7.70;2.85;;;;;;;;;;4956845;28;20027;-78
2023/08/02 09:03:52;;;;;;;3.78;2.45;;;;;;;;;;4956770;28;20514;-84
2023/08/02 09:06:18;;;;;;;5.47;2.50;;;;;;;;;;4955312;29;20034;-85
2023/08/02 09:08:47;;;;;;;5.82;2.53;;;;;;;;;;4956957;29;20031;-78
2023/08/02 09:11:15;;;;;;;2.85;2.55;;;;;;;;;;4956966;29;20019;-76
2023/08/02 09:13:42;;;;;;;5.05;2.78;;;;;;;;;;4956881;29;20019;-73
2023/08/02 09:16:09;;;;;;;4.75;2.92;;;;;;;;;;4956307;29;20027;-72
2023/08/02 09:18:43;;;;;;;8.77;2.45;;;;;;;;;;4956578;28;20023;-71
2023/08/02 09:21:14;;;;;;;7.40;2.53;;;;;;;;;;4956090;28;20023;-69
2023/08/02 09:23:47;;;;;;;5.93;2.95;;;;;;;;;;4956252;28;20039;-70
2023/08/02 09:26:15;;;;;;;9.57;3.17;;;;;;;;;;4956312;28;20029;-69
2023/08/02 09:28:41;;;;;;;5.78;2.92;;;;;;;;;;4956523;29;20034;-70
2023/08/02 09:31:14;;;;;;;3.65;3.08;;;;;;;;;;4956537;29;20024;-68
2023/08/02 09:33:51;;;;;;;6.85;3.03;;;;;;;;;;4956203;29;20516;-69
2023/08/02 09:36:24;;;;;;;4.20;2.90;;;;;;;;;;4955952;28;20480;-70
2023/08/02 09:39:14;;;;;;;4.32;3.00;;;;;;;;;;4955951;29;20407;-69
2023/08/02 09:41:41;;;;;;;4.23;3.20;;;;;;;;;;4955891;28;20031;-70
2023/08/02 09:44:08;;;;;;;6.18;2.90;;;;;;;;;;4956198;29;20085;-70
2023/08/02 09:46:35;;;;;;;8.13;3.17;;;;;;;;;;4955841;28;20042;-70
2023/08/02 09:49:03;;;;;;;3.78;3.10;;;;;;;;;;4955888;28;20488;-70
2023/08/02 09:51:39;;;;;;;6.45;3.25;;;;;;;;;;4955038;28;20023;-70
2023/08/02 09:54:06;;;;;;;5.07;3.28;;;;;;;;;;4956011;28;20031;-70
2023/08/02 09:56:33;;;;;;;5.72;3.10;;;;;;;;;;4955552;28;20027;-70
2023/08/02 09:59:00;;;;;;;5.10;3.10;;;;;;;;;;4955976;29;20031;-69
2023/08/02 10:01:26;;;;;;;6.68;3.10;;;;;;;;;;4951888;28;20019;-69
2023/08/02 10:03:57;;;;;;;5.60;3.17;;;;;;;;;;4954548;29;20051;-69
2023/08/02 10:06:28;;;;;;;5.10;3.03;;;;;;;;;;4946092;29;20538;-70
2023/08/02 10:08:55;;;;;;;4.50;2.97;;;;;;;;;;4955325;28;20027;-70
2023/08/02 10:11:23;;;;;;;4.50;3.08;;;;;;;;;;4954890;28;20045;-69
2023/08/02 10:13:49;;;;;;;7.20;3.03;;;;;;;;;;4954728;29;20030;-70
2023/08/02 10:16:18;;;;;;;4.22;2.92;;;;;;;;;;4954754;29;20033;-69
2023/08/02 10:18:46;;;;;;;4.90;2.88;;;;;;;;;;4954384;28;20031;-69
2023/08/02 10:21:13;;;;;;;5.45;2.65;;;;;;;;;;4954329;29;20027;-69
2023/08/02 10:23:39;;;;;;;5.35;3.10;;;;;;;;;;4954641;29;20050;-69
2023/08/02 10:26:06;;;;;;;4.18;2.72;;;;;;;;;;4954399;28;20039;-69
2023/08/02 10:28:32;;;;;;;4.03;2.60;;;;;;;;;;4954368;29;20035;-68
2023/08/02 10:30:59;;;;;;;4.43;2.67;;;;;;;;;;4954395;29;20027;-69
2023/08/02 10:33:27;;;;;;;4.05;2.60;;;;;;;;;;4953820;29;20043;-69
2023/08/02 10:35:54;;;;;;;5.22;3.17;;;;;;;;;;4954915;28;20502;-68
2023/08/02 10:38:25;;;;;;;3.72;2.40;;;;;;;;;;4958923;28;20046;-69
2023/08/02 10:41:02;;;;;;;3.33;2.90;;;;;;;;;;4954477;29;20042;-70
2023/08/02 10:43:29;;;;;;;6.03;3.08;;;;;;;;;;4954457;29;20528;-70
2023/08/02 10:46:13;;;;;;;3.53;2.50;;;;;;;;;;4954131;29;20023;-69
2023/08/02 10:48:40;;;;;;;3.35;2.33;;;;;;;;;;4953911;29;20031;-70
2023/08/02 10:51:26;;;;;;;8.55;2.97;;;;;;;;;;4954370;29;20024;-71
2023/08/02 10:54:13;;;;;;;3.47;2.72;;;;;;;;;;4954181;29;20027;-72
2023/08/02 10:57:09;;;;;;;8.18;3.28;;;;;;;;;;4954759;28;20019;-72
2023/08/02 10:59:35;;;;;;;8.77;3.20;;;;;;;;;;4953684;29;20053;-72
2023/08/02 11:02:03;;;;;;;5.70;3.35;;;;;;;;;;4952896;28;20066;-72
2023/08/02 11:04:34;;;;;;;4.18;2.70;;;;;;;;;;4954558;29;20039;-72
2023/08/02 11:07:11;;;;;;;3.47;2.58;;;;;;;;;;4953841;29;20081;-72
2023/08/02 11:09:38;;;;;;;3.33;2.85;;;;;;;;;;4954239;28;20031;-72
2023/08/02 11:12:17;;;;;;;4.22;3.10;;;;;;;;;;4954294;29;20423;-72
2023/08/02 11:14:44;;;;;;;4.05;3.20;;;;;;;;;;4954268;29;20031;-72
2023/08/02 11:17:11;;;;;;;3.90;3.00;;;;;;;;;;4953529;29;20046;-73
2023/08/02 11:19:37;;;;;;;3.60;2.70;;;;;;;;;;4954030;29;20484;-72
2023/08/02 11:22:04;;;;;;;4.75;2.97;;;;;;;;;;4954019;29;20489;-72
2023/08/02 11:24:43;;;;;;;5.40;3.13;;;;;;;;;;4953970;28;20039;-72
2023/08/02 11:27:09;;;;;;;3.83;3.10;;;;;;;;;;4953470;29;20399;-72
2023/08/02 11:29:36;;;;;;;4.97;3.28;;;;;;;;;;4953577;29;20031;-72
2023/08/02 11:32:04;;;;;;;3.90;2.50;;;;;;;;;;4953628;28;20027;-72
2023/08/02 11:34:35;;;;;;;3.88;2.65;;;;;;;;;;4948066;28;20051;-73
2023/08/02 11:37:02;;;;;;;3.90;2.80;;;;;;;;;;4959084;28;20443;-72
2023/08/02 11:39:30;;;;;;;2.65;2.45;;;;;;;;;;4951989;29;20028;-72
2023/08/02 11:42:06;;;;;;;3.95;2.80;;;;;;;;;;4953688;29;20031;-72
2023/08/02 11:44:32;;;;;;;3.95;2.85;;;;;;;;;;4950652;28;20404;-72
2023/08/02 11:46:58;;;;;;;5.15;3.05;;;;;;;;;;4943080;29;20031;-72
2023/08/02 11:49:25;;;;;;;3.53;2.60;;;;;;;;;;4941894;28;20031;-72
2023/08/02 11:51:51;;;;;;;4.32;2.90;;;;;;;;;;4947080;28;20035;-72
2023/08/02 11:54:18;;;;;;;3.20;2.45;;;;;;;;;;4942201;29;20515;-72
2023/08/02 11:56:44;;;;;;;3.72;2.80;;;;;;;;;;4944645;28;20031;-72
2023/08/02 11:59:11;;;;;;;3.95;2.85;;;;;;;;;;4934726;29;20032;-72
2023/08/02 12:01:41;;;;;;;4.47;3.00;;;;;;;;;;4933549;29;20104;-72
2023/08/02 12:04:08;;;;;;;4.70;2.90;;;;;;;;;;4934175;29;20046;-72
2023/08/02 12:06:45;;;;;;;2.85;2.30;;;;;;;;;;4933987;29;20022;-72
2023/08/02 12:09:12;;;;;;;3.75;2.83;;;;;;;;;;4933980;29;20040;-72
2023/08/02 12:11:38;;;;;;;5.53;2.70;;;;;;;;;;4933829;29;20078;-72
2023/08/02 12:14:06;;;;;;;3.28;2.63;;;;;;;;;;4936239;29;20079;-72
2023/08/02 12:16:42;;;;;;;4.03;2.75;;;;;;;;;;4937313;29;20012;-72
2023/08/02 12:19:09;;;;;;;3.58;2.90;;;;;;;;;;4937563;29;20028;-72
2023/08/02 12:21:36;;;;;;;4.15;2.75;;;;;;;;;;4937617;29;20032;-72
2023/08/02 12:24:15;;;;;;;6.85;2.92;;;;;;;;;;4940866;29;20051;-72
2023/08/02 12:26:41;;;;;;;3.28;2.60;;;;;;;;;;4948075;29;20015;-72
2023/08/02 12:29:07;;;;;;;3.90;2.90;;;;;;;;;;4946409;29;20043;-72
2023/08/02 12:31:44;;;;;;;4.18;2.85;;;;;;;;;;4947445;29;20020;-72
2023/08/02 12:34:10;;;;;;;3.55;2.63;;;;;;;;;;4956467;28;20051;-72
2023/08/02 12:36:37;;;;;;;3.45;2.45;;;;;;;;;;4955935;28;20368;-72
2023/08/02 12:39:04;;;;;;;8.02;2.53;;;;;;;;;;4956583;28;20511;-72
2023/08/02 12:41:30;;;;;;;2.92;2.58;;;;;;;;;;4956264;29;20027;-72
2023/08/02 12:43:57;;;;;;;4.05;2.60;;;;;;;;;;4956019;28;20097;-72
2023/08/02 12:46:23;;;;;;;2.63;2.42;;;;;;;;;;4956323;29;20031;-72
2023/08/02 12:48:51;;;;;;;4.97;2.70;;;;;;;;;;4956602;29;20037;-72
2023/08/02 12:51:17;;;;;;;2.45;2.13;;;;;;;;;;4956054;28;20077;-73
2023/08/02 12:53:44;;;;;;;5.05;2.63;;;;;;;;;;4956492;29;20498;-72
2023/08/02 12:56:11;;;;;;;4.68;2.55;;;;;;;;;;4956123;28;20384;-72
2023/08/02 12:58:37;;;;;;;3.88;2.45;;;;;;;;;;4956077;28;20512;-72
2023/08/02 13:01:04;;;;;;;3.03;2.50;;;;;;;;;;4956237;29;20031;-72
2023/08/02 13:03:30;;;;;;;4.10;2.80;;;;;;;;;;4956111;29;20046;-72
2023/08/02 13:05:56;;;;;;;3.55;2.50;;;;;;;;;;4955855;28;20039;-72
2023/08/02 13:08:23;;;;;;;5.50;2.90;;;;;;;;;;4955884;29;20447;-72
2023/08/02 13:10:49;;;;;;;3.50;2.40;;;;;;;;;;4956530;28;20019;-70
2023/08/02 13:13:15;;;;;;;3.78;2.67;;;;;;;;;;4955629;29;20037;-71
2023/08/02 13:15:44;;;;;;;7.55;2.80;;;;;;;;;;4955936;28;20396;-71
2023/08/02 13:18:10;;;;;;;3.47;2.70;;;;;;;;;;4953766;29;20024;-71
2023/08/02 13:20:36;;;;;;;4.78;2.70;;;;;;;;;;4955802;29;20492;-71
2023/08/02 13:23:02;;;;;;;5.72;2.30;;;;;;;;;;4940138;29;20042;-71
2023/08/02 13:25:33;;;;;;;3.50;2.80;;;;;;;;;;4935535;29;20602;-71
2023/08/02 13:28:00;;;;;;;3.78;2.63;;;;;;;;;;4935984;29;20112;-71
2023/08/02 13:30:26;;;;;;;3.15;2.30;;;;;;;;;;4950942;29;20366;-71
2023/08/02 13:32:53;;;;;;;3.10;2.28;;;;;;;;;;4948512;29;20061;-71
2023/08/02 13:35:20;;;;;;;3.53;2.28;;;;;;;;;;4955121;29;20046;-71
2023/08/02 13:37:47;;;;;;;3.58;1.90;;;;;;;;;;4958151;28;20404;-71
2023/08/02 13:40:14;;;;;;;4.10;2.15;;;;;;;;;;4955470;28;20472;-71
2023/08/02 13:42:40;;;;;;;2.88;1.95;;;;;;;;;;4953494;29;20043;-71
2023/08/02 13:45:07;;;;;;;5.95;1.90;;;;;;;;;;4954791;28;20041;-71
2023/08/02 13:47:33;;;;;;;4.43;2.45;;;;;;;;;;4954582;29;20030;-71
2023/08/02 13:49:59;;;;;;;3.13;2.13;;;;;;;;;;4955342;29;20464;-71
2023/08/02 13:52:25;;;;;;;4.80;2.20;;;;;;;;;;4954894;29;20058;-72
2023/08/02 13:54:52;;;;;;;6.22;2.50;;;;;;;;;;4953783;29;20031;-71
2023/08/02 13:57:18;;;;;;;3.83;2.13;;;;;;;;;;4954521;29;20042;-70
2023/08/02 13:59:44;;;;;;;3.35;2.30;;;;;;;;;;4954538;29;20484;-70
2023/08/02 14:02:11;;;;;;;3.38;2.50;;;;;;;;;;4952951;29;20043;-71
2023/08/02 14:04:37;;;;;;;4.47;2.60;;;;;;;;;;4954329;29;20031;-70
2023/08/02 14:07:04;;;;;;;3.17;2.45;;;;;;;;;;4954535;29;20034;-70
2023/08/02 14:09:31;;;;;;;4.90;2.30;;;;;;;;;;4955053;29;20035;-71
2023/08/02 14:11:57;;;;;;;5.45;2.50;;;;;;;;;;4954694;28;20027;-71
2023/08/02 14:14:24;;;;;;;4.40;2.42;;;;;;;;;;4952703;29;20085;-71
2023/08/02 14:16:51;;;;;;;6.05;2.63;;;;;;;;;;4954141;29;20024;-71
2023/08/02 14:19:17;;;;;;;3.05;2.10;;;;;;;;;;4948355;29;20035;-71
2023/08/02 14:21:43;;;;;;;5.88;2.50;;;;;;;;;;4951652;29;20027;-71
2023/08/02 14:24:10;;;;;;;4.13;2.60;;;;;;;;;;4935539;29;20120;-71
2023/08/02 14:26:36;;;;;;;3.58;2.22;;;;;;;;;;4935224;29;20075;-72
2023/08/02 14:29:02;;;;;;;5.00;2.60;;;;;;;;;;4935282;29;20038;-71
2023/08/02 14:31:29;;;;;;;4.55;2.33;;;;;;;;;;4935532;29;20016;-71
2023/08/02 14:33:55;;;;;;;5.18;2.17;;;;;;;;;;4935078;29;20483;-70
2023/08/02 14:36:21;;;;;;;6.45;2.20;;;;;;;;;;4939246;29;20037;-70
2023/08/02 14:38:48;;;;;;;4.75;2.10;;;;;;;;;;4937051;29;20507;-71
2023/08/02 14:41:15;;;;;;;4.18;2.05;;;;;;;;;;4934721;29;20062;-71
2023/08/02 14:43:42;;;;;;;5.63;2.60;;;;;;;;;;4935172;29;20043;-71